createdAt,value
2024-03-06T00:03:57.576Z,3.84
2024-03-06T00:09:36.237Z,3.77
2024-03-06T00:11:53.143Z,3.82
2024-03-06T00:14:00.445Z,3.79
2024-03-06T00:16:20.551Z,3.87
2024-03-06T00:18:31.478Z,3.86
2024-03-06T00:20:32.373Z,3.84
2024-03-06T00:23:27.447Z,3.68
2024-03-06T00:25:36.056Z,3.56
2024-03-06T00:27:35.954Z,3.65
2024-03-06T00:33:35.161Z,3.55
2024-03-06T00:39:26.994Z,3.55
2024-03-06T00:41:51.459Z,3.49
2024-03-06T00:44:10.237Z,3.57
2024-03-06T00:46:21.335Z,3.57
2024-03-06T00:48:47.948Z,3.50
2024-03-06T00:50:59.888Z,3.45
2024-03-06T00:53:15.496Z,3.48
2024-03-06T00:55:21.332Z,3.41
2024-03-06T00:57:31.383Z,3.37
2024-03-06T00:59:31.550Z,3.43
2024-03-06T01:01:33.244Z,3.36
2024-03-06T01:03:36.746Z,3.40
2024-03-06T01:05:54.498Z,3.22
2024-03-06T01:07:50.090Z,3.23
2024-03-06T01:09:45.448Z,3.19
2024-03-06T01:11:38.678Z,3.06
2024-03-06T01:13:47.383Z,3.20
2024-03-06T01:15:58.060Z,3.23
2024-03-06T01:18:01.035Z,3.26
2024-03-06T01:19:56.778Z,3.35
2024-03-06T01:21:55.920Z,3.31
2024-03-06T01:23:51.490Z,3.21
2024-03-06T01:25:44.328Z,3.17
2024-03-06T01:27:42.660Z,3.28
2024-03-06T01:29:35.152Z,3.20
2024-03-06T01:31:33.579Z,3.23
2024-03-06T01:33:26.397Z,3.21
2024-03-06T01:35:22.476Z,3.13
2024-03-06T01:37:17.618Z,3.10
2024-03-06T01:39:11.059Z,3.02
2024-03-06T01:41:06.598Z,3.10
2024-03-06T01:43:02.513Z,3.07
2024-03-06T01:45:04.556Z,2.95
2024-03-06T01:47:03.153Z,3.02
2024-03-06T01:49:04.502Z,3.00
2024-03-06T01:51:10.927Z,2.97
2024-03-06T01:53:12.908Z,2.98
2024-03-06T01:55:11.728Z,2.96
2024-03-06T01:57:09.210Z,3.03
2024-03-06T01:59:05.288Z,3.07
2024-03-06T02:01:02.744Z,3.05
2024-03-06T02:02:58.301Z,3.01
2024-03-06T02:04:58.967Z,2.85
2024-03-06T02:06:57.651Z,2.98
2024-03-06T02:08:58.470Z,2.92
2024-03-06T02:10:55.528Z,2.92
2024-03-06T02:12:58.129Z,2.87
2024-03-06T02:14:55.833Z,2.80
2024-03-06T02:16:49.637Z,2.81
2024-03-06T02:18:59.085Z,2.79
2024-03-06T02:20:56.861Z,2.80
2024-03-06T02:22:49.688Z,2.81
2024-03-06T02:24:55.622Z,2.78
2024-03-06T02:26:51.632Z,2.84
2024-03-06T02:28:49.488Z,2.87
2024-03-06T02:30:45.304Z,2.90
2024-03-06T02:32:39.905Z,2.78
2024-03-06T02:34:35.638Z,2.79
2024-03-06T02:36:33.695Z,2.78
2024-03-06T02:38:30.890Z,2.74
2024-03-06T02:40:26.023Z,2.67
2024-03-06T02:42:20.127Z,2.61
2024-03-06T02:44:15.281Z,2.68
2024-03-06T02:46:11.160Z,2.55
2024-03-06T02:48:06.997Z,2.55
2024-03-06T02:49:59.992Z,2.56
2024-03-06T02:51:58.985Z,2.52
2024-03-06T02:54:02.385Z,2.38
2024-03-06T02:55:57.755Z,2.43
2024-03-06T02:57:53.300Z,2.45
2024-03-06T02:59:51.142Z,2.41
2024-03-06T03:02:03.191Z,2.40
2024-03-06T03:04:14.484Z,2.42
2024-03-06T03:06:24.762Z,2.39
2024-03-06T03:08:23.976Z,2.34
2024-03-06T03:10:22.112Z,2.36
2024-03-06T03:12:30.021Z,2.39
2024-03-06T03:14:38.010Z,2.33
2024-03-06T03:16:42.818Z,2.30
2024-03-06T03:18:49.894Z,2.32
2024-03-06T03:20:45.408Z,2.35
2024-03-06T03:22:47.285Z,2.23
2024-03-06T03:24:58.752Z,2.25
2024-03-06T03:27:02.737Z,2.28
2024-03-06T03:29:01.614Z,2.32
2024-03-06T03:30:58.016Z,2.24
2024-03-06T03:32:59.425Z,2.14
2024-03-06T03:35:00.887Z,1.97
2024-03-06T03:37:05.461Z,1.98
2024-03-06T03:39:01.130Z,1.97
2024-03-06T03:41:09.903Z,1.95
2024-03-06T03:43:27.977Z,1.96
2024-03-06T03:45:24.512Z,2.00
2024-03-06T03:47:23.449Z,1.94
2024-03-06T03:49:19.091Z,1.88
2024-03-06T03:51:15.410Z,1.86
2024-03-06T03:53:10.945Z,1.86
2024-03-06T03:55:08.772Z,1.96
2024-03-06T03:57:09.540Z,1.97
2024-03-06T03:59:02.648Z,1.92
2024-03-06T04:00:59.182Z,1.79
2024-03-06T04:02:52.326Z,1.70
2024-03-06T04:04:47.507Z,1.76
2024-03-06T04:06:43.060Z,1.74
2024-03-06T04:08:40.637Z,1.78
2024-03-06T04:10:33.963Z,1.69
2024-03-06T04:12:31.988Z,1.57
2024-03-06T04:14:28.113Z,1.53
2024-03-06T04:16:23.309Z,1.57
2024-03-06T04:18:18.783Z,1.50
2024-03-06T04:20:17.169Z,1.62
2024-03-06T04:22:10.065Z,1.67
2024-03-06T04:24:05.369Z,1.67
2024-03-06T04:25:58.341Z,1.61
2024-03-06T04:27:56.291Z,1.64
2024-03-06T04:29:51.627Z,1.67
2024-03-06T04:31:44.197Z,1.65
2024-03-06T04:33:39.951Z,1.69
2024-03-06T04:35:32.478Z,1.67
2024-03-06T04:37:28.084Z,1.68
2024-03-06T04:39:20.925Z,1.67
2024-03-06T04:41:16.753Z,1.80
2024-03-06T04:43:14.877Z,1.76
2024-03-06T04:45:15.181Z,1.83
2024-03-06T04:47:11.217Z,1.81
2024-03-06T04:49:04.437Z,1.82
2024-03-06T04:51:00.152Z,1.71
2024-03-06T04:52:53.263Z,1.67
2024-03-06T04:54:50.206Z,1.61
2024-03-06T04:56:45.687Z,1.68
2024-03-06T04:58:45.717Z,1.63
2024-03-06T05:00:41.133Z,1.65
2024-03-06T05:59:09.729Z,1.52
2024-03-06T06:01:08.237Z,1.56
2024-03-06T06:03:06.681Z,1.52
2024-03-06T06:05:12.257Z,1.54
2024-03-06T06:07:17.364Z,1.52
2024-03-06T06:09:17.408Z,1.51
2024-03-06T06:11:10.090Z,1.54
2024-03-06T06:13:06.586Z,1.56
2024-03-06T06:15:01.830Z,1.61
2024-03-06T06:17:00.478Z,1.49
2024-03-06T06:18:56.343Z,1.50
2024-03-06T06:20:52.221Z,1.49
2024-03-06T06:22:45.164Z,1.48
2024-03-06T06:24:43.504Z,1.48
2024-03-06T06:26:40.521Z,1.49
2024-03-06T06:28:36.253Z,1.53
2024-03-06T06:30:31.432Z,1.51
2024-03-06T06:32:29.910Z,1.57
2024-03-06T06:34:28.825Z,1.53
2024-03-06T06:36:24.401Z,1.44
2024-03-06T06:38:19.574Z,1.46
2024-03-06T06:40:21.459Z,1.51
2024-03-06T06:42:16.666Z,1.62
2024-03-06T06:44:16.165Z,1.55
2024-03-06T06:46:08.657Z,1.60
2024-03-06T06:48:06.887Z,1.63
2024-03-06T06:49:59.887Z,1.63
2024-03-06T06:51:55.469Z,1.64
2024-03-06T06:53:50.879Z,1.63
2024-03-06T06:55:46.627Z,1.67
2024-03-06T06:57:39.649Z,1.73
2024-03-06T06:59:35.872Z,1.66
2024-03-06T07:01:31.542Z,1.61
2024-03-06T07:03:31.151Z,1.65
2024-03-06T07:05:27.807Z,1.73
2024-03-06T07:07:23.753Z,1.66
2024-03-06T07:09:19.700Z,1.77
2024-03-06T07:11:15.574Z,1.90
2024-03-06T07:13:09.567Z,1.97
2024-03-06T07:15:06.354Z,2.19
2024-03-06T07:17:02.329Z,2.33
2024-03-06T07:19:00.922Z,2.25
2024-03-06T07:20:56.069Z,2.45
2024-03-06T07:22:52.153Z,2.32
2024-03-06T07:24:45.144Z,2.55
2024-03-06T07:26:40.584Z,2.57
2024-03-06T07:28:34.176Z,2.71
2024-03-06T07:30:30.907Z,2.71
2024-03-06T07:32:26.843Z,2.64
2024-03-06T07:34:25.293Z,2.57
2024-03-06T07:36:23.374Z,2.57
2024-03-06T07:38:22.098Z,2.67
2024-03-06T07:40:17.879Z,2.69
2024-03-06T07:42:14.126Z,2.61
2024-03-06T07:44:10.089Z,2.98
2024-03-06T07:46:11.585Z,2.93
2024-03-06T07:48:08.495Z,2.92
2024-03-06T07:50:05.763Z,3.05
2024-03-06T07:52:01.628Z,2.99
2024-03-06T07:53:55.286Z,3.06
2024-03-06T07:55:50.653Z,3.15
2024-03-06T07:57:47.601Z,3.10
2024-03-06T07:59:43.427Z,3.13
2024-03-06T08:01:41.326Z,3.04
2024-03-06T08:03:36.442Z,3.06
2024-03-06T08:05:35.076Z,3.20
2024-03-06T08:07:28.060Z,3.28
2024-03-06T08:09:24.927Z,3.30
2024-03-06T08:11:23.173Z,3.34
2024-03-06T08:13:20.317Z,3.44
2024-03-06T08:15:18.452Z,3.51
2024-03-06T08:17:15.702Z,3.55
2024-03-06T08:19:11.554Z,3.61
2024-03-06T08:21:10.324Z,3.65
2024-03-06T08:23:07.931Z,3.72
2024-03-06T08:25:03.184Z,3.87
2024-03-06T08:26:58.617Z,3.98
2024-03-06T08:28:52.988Z,4.07
2024-03-06T08:30:48.315Z,4.15
2024-03-06T08:32:45.885Z,4.30
2024-03-06T08:34:38.938Z,4.45
2024-03-06T08:36:38.511Z,4.54
2024-03-06T08:38:33.680Z,4.64
2024-03-06T08:40:29.493Z,4.67
2024-03-06T08:42:24.969Z,4.80
2024-03-06T08:44:20.081Z,4.93
2024-03-06T08:46:15.598Z,5.12
2024-03-06T08:48:11.557Z,5.15
2024-03-06T08:50:09.129Z,5.22
2024-03-06T08:52:05.878Z,5.32
2024-03-06T08:54:01.365Z,5.40
2024-03-06T08:55:59.638Z,5.51
2024-03-06T08:57:55.218Z,5.67
2024-03-06T08:59:52.469Z,5.75
2024-03-06T09:01:48.752Z,5.91
2024-03-06T09:03:44.276Z,5.96
2024-03-06T09:05:39.459Z,6.00
2024-03-06T09:07:38.479Z,6.09
2024-03-06T09:09:34.992Z,6.19
2024-03-06T09:11:31.373Z,5.97
2024-03-06T09:13:27.844Z,6.21
2024-03-06T09:15:24.201Z,6.33
2024-03-06T09:17:20.301Z,6.55
2024-03-06T09:19:19.220Z,6.63
2024-03-06T09:21:15.380Z,6.77
2024-03-06T09:23:13.413Z,6.96
2024-03-06T09:25:10.329Z,7.12
2024-03-06T09:27:03.908Z,7.32
2024-03-06T09:28:59.498Z,7.35
2024-03-06T09:30:55.428Z,7.30
2024-03-06T09:32:50.998Z,7.36
2024-03-06T09:34:46.737Z,7.69
2024-03-06T09:36:42.311Z,7.68
2024-03-06T09:38:41.756Z,7.78
2024-03-06T09:40:36.945Z,7.87
2024-03-06T09:42:34.101Z,8.12
2024-03-06T09:44:29.581Z,8.08
2024-03-06T09:46:24.753Z,8.17
2024-03-06T09:48:22.360Z,8.34
2024-03-06T09:50:25.613Z,8.52
2024-03-06T09:52:18.473Z,8.66
2024-03-06T09:54:20.495Z,8.85
2024-03-06T09:56:16.404Z,8.92
2024-03-06T09:58:09.867Z,8.99
2024-03-06T10:00:07.349Z,9.08
2024-03-06T10:02:03.967Z,9.05
2024-03-06T10:03:59.345Z,9.05
2024-03-06T10:05:54.163Z,9.03
2024-03-06T10:07:50.190Z,9.18
2024-03-06T10:09:51.334Z,9.22
2024-03-06T10:11:46.509Z,9.25
2024-03-06T10:13:42.041Z,9.49
2024-03-06T10:15:38.075Z,9.61
2024-03-06T10:17:30.765Z,9.86
2024-03-06T10:19:28.717Z,9.97
2024-03-06T10:21:32.947Z,10.01
2024-03-06T10:23:30.668Z,10.28
2024-03-06T10:25:27.415Z,10.38
2024-03-06T10:27:23.020Z,10.56
2024-03-06T10:29:18.615Z,11.00
2024-03-06T10:31:14.072Z,11.27
2024-03-06T10:33:07.511Z,11.23
2024-03-06T10:35:10.588Z,11.24
2024-03-06T10:37:07.498Z,10.72
2024-03-06T10:39:05.779Z,10.61
2024-03-06T10:41:01.605Z,10.76
2024-03-06T10:42:57.000Z,10.85
2024-03-06T10:44:56.358Z,10.58
2024-03-06T10:46:56.529Z,10.64
2024-03-06T10:48:53.888Z,10.44
2024-03-06T10:50:50.707Z,10.77
2024-03-06T10:52:45.942Z,10.91
2024-03-06T10:54:43.726Z,11.16
2024-03-06T10:56:41.028Z,11.23
2024-03-06T10:58:37.782Z,11.34
2024-03-06T11:00:34.949Z,11.42
2024-03-06T11:02:29.523Z,11.63
2024-03-06T11:04:24.953Z,11.40
2024-03-06T11:06:21.423Z,11.00
2024-03-06T11:08:15.624Z,10.70
2024-03-06T11:10:17.671Z,10.32
2024-03-06T11:12:15.953Z,10.97
2024-03-06T11:14:12.285Z,11.25
2024-03-06T11:16:08.391Z,11.67
2024-03-06T11:18:38.916Z,12.36
2024-03-06T11:20:37.960Z,12.42
2024-03-06T11:23:01.326Z,12.41
2024-03-06T11:24:57.179Z,11.94
2024-03-06T11:26:58.620Z,11.34
2024-03-06T11:28:58.060Z,11.44
2024-03-06T11:30:59.449Z,11.50
2024-03-06T11:33:17.645Z,11.55
2024-03-06T11:35:16.274Z,11.75
2024-03-06T11:37:14.627Z,11.87
2024-03-06T11:39:09.012Z,11.89
2024-03-06T11:41:10.079Z,12.07
2024-03-06T11:43:28.420Z,12.63
2024-03-06T11:45:26.662Z,13.06
2024-03-06T11:47:22.020Z,13.35
2024-03-06T11:49:17.506Z,13.55
2024-03-06T11:51:13.533Z,13.71
2024-03-06T11:53:11.719Z,13.15
2024-03-06T11:55:10.438Z,13.07
2024-03-06T11:57:07.398Z,12.79
2024-03-06T11:59:01.921Z,12.73
2024-03-06T12:01:01.208Z,12.70
2024-03-06T12:02:59.711Z,12.60
2024-03-06T12:04:55.637Z,12.59
2024-03-06T12:06:49.200Z,12.52
2024-03-06T12:08:44.632Z,12.52
2024-03-06T12:10:56.734Z,12.42
2024-03-06T12:12:52.538Z,12.38
2024-03-06T12:14:59.394Z,12.56
2024-03-06T12:17:06.086Z,13.56
2024-03-06T12:19:02.779Z,14.04
2024-03-06T12:20:55.862Z,13.90
2024-03-06T12:22:53.601Z,14.14
2024-03-06T12:24:50.339Z,14.58
2024-03-06T12:26:42.945Z,15.18
2024-03-06T12:28:38.411Z,15.63
2024-03-06T12:30:45.810Z,15.26
2024-03-06T12:32:44.107Z,15.03
2024-03-06T12:34:39.318Z,14.77
2024-03-06T12:36:37.238Z,14.56
2024-03-06T12:38:33.389Z,14.30
2024-03-06T12:40:26.353Z,14.10
2024-03-06T12:42:21.775Z,13.74
2024-03-06T12:44:16.882Z,13.30
2024-03-06T12:46:12.040Z,13.31
2024-03-06T12:48:11.242Z,12.99
2024-03-06T12:50:04.121Z,13.17
2024-03-06T12:52:04.666Z,13.30
2024-03-06T12:54:01.320Z,13.32
2024-03-06T12:55:53.814Z,13.39
2024-03-06T12:57:51.050Z,13.20
2024-03-06T12:59:43.911Z,13.19
2024-03-06T13:01:39.309Z,13.19
2024-03-06T13:03:37.139Z,13.11
2024-03-06T13:05:30.152Z,13.05
2024-03-06T13:07:25.183Z,13.04
2024-03-06T13:09:20.400Z,13.15
2024-03-06T13:11:15.862Z,13.08
2024-03-06T13:13:11.049Z,13.14
2024-03-06T13:15:05.705Z,12.87
2024-03-06T13:17:01.124Z,12.88
2024-03-06T13:19:01.803Z,12.88
2024-03-06T13:20:59.561Z,12.73
2024-03-06T13:22:57.336Z,12.63
2024-03-06T13:24:53.766Z,12.62
2024-03-06T13:26:51.489Z,12.54
2024-03-06T13:28:47.425Z,12.40
2024-03-06T13:30:42.821Z,12.36
2024-03-06T13:32:38.252Z,12.30
2024-03-06T13:34:36.302Z,12.48
2024-03-06T13:36:31.392Z,12.81
2024-03-06T13:38:26.667Z,12.79
2024-03-06T13:40:19.650Z,12.63
2024-03-06T13:42:14.798Z,12.72
2024-03-06T13:44:11.774Z,12.53
2024-03-06T13:46:08.768Z,12.42
2024-03-06T13:48:04.156Z,12.32
2024-03-06T13:50:02.042Z,12.33
2024-03-06T13:51:54.934Z,12.31
2024-03-06T13:53:50.290Z,12.16
2024-03-06T13:55:45.624Z,11.61
2024-03-06T13:57:39.710Z,11.59
2024-03-06T13:59:37.338Z,11.69
2024-03-06T14:01:35.374Z,11.67
2024-03-06T14:03:31.312Z,11.49
2024-03-06T14:05:26.559Z,11.46
2024-03-06T14:07:21.848Z,11.46
2024-03-06T14:09:16.881Z,11.47
2024-03-06T14:11:16.065Z,11.38
2024-03-06T14:13:11.323Z,11.32
2024-03-06T14:15:10.237Z,11.30
2024-03-06T14:17:05.651Z,11.34
2024-03-06T14:18:58.865Z,11.42
2024-03-06T14:20:57.287Z,11.53
2024-03-06T14:22:52.705Z,11.64
2024-03-06T14:24:48.164Z,11.61
2024-03-06T14:26:41.547Z,11.47
2024-03-06T14:28:37.018Z,11.42
2024-03-06T14:30:32.635Z,11.45
2024-03-06T14:32:28.650Z,11.35
2024-03-06T14:34:24.899Z,11.31
2024-03-06T14:36:23.450Z,11.15
2024-03-06T14:38:19.213Z,11.09
2024-03-06T14:40:15.191Z,11.23
2024-03-06T14:42:08.269Z,11.29
2024-03-06T14:44:04.071Z,11.26
2024-03-06T14:46:02.358Z,11.24
2024-03-06T14:47:59.145Z,11.26
2024-03-06T14:49:55.132Z,11.27
2024-03-06T14:51:54.339Z,11.12
2024-03-06T14:53:46.842Z,10.89
2024-03-06T14:55:42.324Z,10.79
2024-03-06T14:57:40.178Z,10.85
2024-03-06T14:59:35.450Z,10.87
2024-03-06T15:01:28.523Z,10.88
2024-03-06T15:03:26.261Z,10.73
2024-03-06T15:05:22.430Z,10.73
2024-03-06T15:07:22.344Z,10.76
2024-03-06T15:09:23.127Z,10.84
2024-03-06T15:11:18.324Z,10.79
2024-03-06T15:13:14.536Z,10.73
2024-03-06T15:15:11.200Z,10.64
2024-03-06T15:17:04.474Z,10.74
2024-03-06T15:19:00.167Z,10.66
2024-03-06T15:20:57.014Z,10.64
2024-03-06T15:22:54.849Z,10.50
2024-03-06T15:24:51.501Z,10.52
2024-03-06T15:26:49.842Z,10.65
2024-03-06T15:28:46.501Z,10.33
2024-03-06T15:30:45.249Z,10.34
2024-03-06T15:32:40.871Z,10.41
2024-03-06T15:34:35.986Z,10.52
2024-03-06T15:36:31.917Z,10.45
2024-03-06T15:38:27.230Z,10.55
2024-03-06T15:40:24.331Z,10.56
2024-03-06T15:42:17.810Z,10.60
2024-03-06T15:44:13.049Z,10.61
2024-03-06T15:46:09.715Z,10.45
2024-03-06T15:48:04.463Z,10.37
2024-03-06T15:50:01.794Z,10.27
2024-03-06T15:51:57.480Z,10.31
2024-03-06T15:54:01.859Z,10.38
2024-03-06T15:55:57.290Z,10.48
2024-03-06T15:57:55.611Z,10.50
2024-03-06T15:59:48.737Z,10.46
2024-03-06T16:01:44.163Z,10.40
2024-03-06T16:03:40.586Z,10.35
2024-03-06T16:05:36.436Z,10.35
2024-03-06T16:07:29.337Z,10.31
2024-03-06T16:09:30.269Z,9.94
2024-03-06T16:11:23.526Z,10.09
2024-03-06T16:13:18.823Z,10.21
2024-03-06T16:15:15.216Z,10.19
2024-03-06T16:17:10.854Z,10.07
2024-03-06T16:19:03.482Z,10.04
2024-03-06T16:20:59.574Z,10.03
2024-03-06T16:22:55.200Z,9.98
2024-03-06T16:24:53.115Z,9.98
2024-03-06T16:26:50.468Z,9.89
2024-03-06T16:28:45.113Z,9.89
2024-03-06T16:30:40.204Z,9.83
2024-03-06T16:32:37.348Z,9.90
2024-03-06T16:34:33.869Z,9.70
2024-03-06T16:36:29.087Z,9.63
2024-03-06T16:38:24.566Z,9.72
2024-03-06T16:40:24.135Z,9.79
2024-03-06T16:42:17.632Z,9.85
2024-03-06T16:44:16.144Z,9.84
2024-03-06T16:46:11.849Z,9.71
2024-03-06T16:48:11.499Z,9.73
2024-03-06T16:50:10.512Z,9.62
2024-03-06T16:52:08.100Z,9.67
2024-03-06T16:54:02.157Z,9.66
2024-03-06T16:56:03.899Z,9.68
2024-03-06T16:57:59.799Z,9.66
2024-03-06T16:59:55.342Z,9.66
2024-03-06T17:01:48.395Z,9.69
2024-03-06T17:03:44.156Z,9.64
2024-03-06T17:05:39.775Z,9.61
2024-03-06T17:07:36.351Z,9.50
2024-03-06T17:09:31.800Z,9.50
2024-03-06T17:11:26.980Z,9.23
2024-03-06T17:13:22.515Z,9.08
2024-03-06T17:15:17.615Z,9.19
2024-03-06T17:17:13.065Z,9.21
2024-03-06T17:19:08.234Z,9.27
2024-03-06T17:21:05.328Z,9.20
2024-03-06T17:23:00.434Z,9.27
2024-03-06T17:24:57.259Z,9.10
2024-03-06T17:26:55.150Z,9.16
2024-03-06T17:28:51.275Z,9.17
2024-03-06T17:30:48.690Z,9.18
2024-03-06T17:32:44.168Z,9.08
2024-03-06T17:34:39.321Z,9.04
2024-03-06T17:36:36.590Z,9.00
2024-03-06T17:38:33.093Z,9.08
2024-03-06T17:40:28.670Z,9.11
2024-03-06T17:42:26.454Z,9.18
2024-03-06T17:44:21.916Z,9.15
2024-03-06T17:46:14.531Z,8.91
2024-03-06T17:48:11.200Z,8.97
2024-03-06T17:50:04.431Z,9.00
2024-03-06T17:51:59.823Z,9.01
2024-03-06T17:53:54.961Z,8.87
2024-03-06T17:55:50.586Z,8.95
2024-03-06T17:57:50.017Z,8.81
2024-03-06T17:59:45.679Z,8.76
2024-03-06T18:01:40.902Z,8.90
2024-03-06T18:03:36.624Z,8.89
2024-03-06T18:05:29.494Z,8.90
2024-03-06T18:07:24.945Z,8.86
2024-03-06T18:09:20.936Z,8.83
2024-03-06T18:11:16.937Z,8.85
2024-03-06T18:13:14.876Z,8.87
2024-03-06T18:15:09.508Z,8.82
2024-03-06T18:17:05.784Z,8.92
2024-03-06T18:18:58.702Z,8.88
2024-03-06T18:20:53.767Z,8.84
2024-03-06T18:22:50.873Z,8.81
2024-03-06T18:24:46.149Z,8.81
2024-03-06T18:26:41.784Z,8.75
2024-03-06T18:28:40.501Z,8.77
2024-03-06T18:30:33.430Z,8.74
2024-03-06T18:32:30.065Z,8.76
2024-03-06T18:34:25.773Z,8.76
2024-03-06T18:36:20.920Z,8.68
2024-03-06T18:38:16.581Z,8.64
2024-03-06T18:40:14.010Z,8.67
2024-03-06T18:42:16.005Z,8.69
2024-03-06T18:44:18.836Z,8.64
2024-03-06T18:46:14.421Z,8.64
2024-03-06T18:48:10.461Z,8.65
2024-03-06T18:50:05.453Z,8.64
2024-03-06T18:52:02.032Z,8.70
2024-03-06T18:53:57.486Z,8.64
2024-03-06T18:55:52.775Z,8.47
2024-03-06T18:57:45.627Z,8.55
2024-03-06T18:59:43.879Z,8.64
2024-03-06T19:01:36.812Z,8.58
2024-03-06T19:03:31.998Z,8.57
2024-03-06T19:05:28.439Z,8.58
2024-03-06T19:07:23.948Z,8.62
2024-03-06T19:09:20.213Z,8.62
2024-03-06T19:11:15.698Z,8.44
2024-03-06T19:13:11.667Z,8.41
2024-03-06T19:15:10.628Z,8.29
2024-03-06T19:17:03.545Z,8.31
2024-03-06T19:18:58.941Z,8.34
2024-03-06T19:20:52.270Z,8.32
2024-03-06T19:22:47.396Z,8.31
2024-03-06T19:24:42.802Z,8.34
2024-03-06T19:26:35.342Z,8.36
2024-03-06T19:28:30.742Z,8.34
2024-03-06T19:30:28.607Z,8.35
2024-03-06T19:32:25.591Z,8.36
2024-03-06T19:34:18.708Z,8.31
2024-03-06T19:36:14.212Z,8.40
2024-03-06T19:38:09.636Z,8.34
2024-03-06T19:40:02.599Z,8.35
2024-03-06T19:41:59.456Z,8.37
2024-03-06T19:43:52.306Z,8.34
2024-03-06T19:45:50.036Z,8.28
2024-03-06T19:47:45.577Z,8.26
2024-03-06T19:49:40.714Z,8.25
2024-03-06T19:51:33.644Z,8.29
2024-03-06T19:53:31.056Z,8.30
2024-03-06T19:55:26.559Z,8.26
2024-03-06T19:57:22.072Z,8.26
2024-03-06T19:59:17.496Z,8.18
2024-03-06T20:01:15.323Z,8.07
2024-03-06T20:03:11.002Z,8.09
2024-03-06T20:05:09.007Z,8.14
2024-03-06T20:07:05.250Z,8.15
2024-03-06T20:09:00.441Z,8.10
2024-03-06T20:10:55.965Z,8.10
2024-03-06T20:12:51.223Z,8.15
2024-03-06T20:14:46.634Z,8.18
2024-03-06T20:16:44.397Z,8.09
2024-03-06T20:18:40.011Z,8.12
2024-03-06T20:20:35.916Z,8.14
2024-03-06T20:22:28.834Z,8.08
2024-03-06T20:24:25.716Z,8.09
2024-03-06T20:26:18.702Z,8.11
2024-03-06T20:28:14.312Z,8.10
2024-03-06T20:30:11.816Z,8.13
2024-03-06T20:32:10.020Z,8.07
2024-03-06T20:34:07.408Z,7.99
2024-03-06T20:36:00.164Z,7.94
2024-03-06T20:37:55.666Z,8.01
2024-03-06T20:39:50.913Z,8.01
2024-03-06T20:41:46.936Z,8.03
2024-03-06T20:43:42.693Z,7.90
2024-03-06T20:45:43.578Z,7.96
2024-03-06T20:47:40.868Z,8.00
2024-03-06T20:49:36.732Z,7.95
2024-03-06T20:51:31.861Z,7.94
2024-03-06T20:53:24.743Z,8.02
2024-03-06T20:55:20.415Z,7.98
2024-03-06T20:57:17.186Z,8.00
2024-03-06T20:59:13.807Z,7.97
2024-03-06T21:01:07.813Z,7.99
2024-03-06T21:03:05.843Z,7.98
2024-03-06T21:05:01.590Z,7.99
2024-03-06T21:06:57.136Z,7.99
2024-03-06T21:08:50.085Z,8.00
2024-03-06T21:10:46.151Z,7.97
2024-03-06T21:12:39.286Z,7.94
2024-03-06T21:14:35.406Z,7.90
2024-03-06T21:16:32.070Z,7.86
2024-03-06T21:18:30.675Z,7.88
2024-03-06T21:20:26.740Z,7.86
2024-03-06T21:22:24.441Z,7.88
2024-03-06T21:24:23.215Z,7.99
2024-03-06T21:26:18.790Z,8.00
2024-03-06T21:28:14.784Z,7.92
2024-03-06T21:30:12.751Z,7.91
2024-03-06T21:32:09.234Z,7.91
2024-03-06T21:34:07.455Z,7.88
2024-03-06T21:36:00.890Z,7.84
2024-03-06T21:37:56.632Z,7.75
2024-03-06T21:39:50.174Z,7.71
2024-03-06T21:41:45.980Z,7.63
2024-03-06T21:43:46.010Z,7.61
2024-03-06T21:45:41.360Z,7.68
2024-03-06T21:47:34.490Z,7.71
2024-03-06T21:49:35.844Z,7.69
2024-03-06T21:51:31.956Z,7.68
2024-03-06T21:53:27.277Z,7.72
2024-03-06T21:55:23.608Z,7.70
2024-03-06T21:57:19.244Z,7.72
2024-03-06T21:59:14.786Z,7.64
2024-03-06T22:01:12.064Z,7.62
2024-03-06T22:03:06.613Z,7.60
2024-03-06T22:05:05.082Z,7.48
2024-03-06T22:07:00.733Z,7.53
2024-03-06T22:08:53.369Z,7.43
2024-03-06T22:10:48.966Z,7.49
2024-03-06T22:12:41.802Z,7.57
2024-03-06T22:14:37.328Z,7.59
2024-03-06T22:16:32.551Z,7.56
2024-03-06T22:18:28.191Z,7.64
2024-03-06T22:20:26.076Z,7.64
2024-03-06T22:22:19.809Z,7.50
2024-03-06T22:24:14.912Z,7.58
2024-03-06T22:26:10.378Z,7.58
2024-03-06T22:28:05.651Z,7.59
2024-03-06T22:29:58.794Z,7.60
2024-03-06T22:31:54.180Z,7.62
2024-03-06T22:33:49.728Z,7.61
2024-03-06T22:35:47.537Z,7.63
2024-03-06T22:37:40.493Z,7.61
2024-03-06T22:39:35.624Z,7.61
2024-03-06T22:41:31.107Z,7.67
2024-03-06T22:43:26.358Z,7.64
2024-03-06T22:45:21.816Z,7.60
2024-03-06T22:47:19.078Z,7.53
2024-03-06T22:49:12.216Z,7.43
2024-03-06T22:51:10.874Z,7.49
2024-03-06T22:53:07.511Z,7.44
2024-03-06T22:55:05.803Z,7.48
2024-03-06T22:57:03.463Z,7.43
2024-03-06T22:58:59.602Z,7.31
2024-03-06T23:00:53.119Z,7.30
2024-03-06T23:02:49.393Z,7.37
2024-03-06T23:04:45.468Z,7.42
2024-03-06T23:06:43.685Z,7.44
2024-03-06T23:08:40.001Z,7.48
2024-03-06T23:10:35.194Z,7.44
2024-03-06T23:12:31.217Z,7.47
2024-03-06T23:14:24.199Z,7.41
2024-03-06T23:16:20.906Z,7.43
2024-03-06T23:18:13.993Z,7.43
2024-03-06T23:20:12.206Z,7.39
2024-03-06T23:22:10.349Z,7.39
2024-03-06T23:24:06.673Z,7.42
2024-03-06T23:26:01.915Z,7.37
2024-03-06T23:27:59.202Z,7.37
2024-03-06T23:29:54.502Z,7.40
2024-03-06T23:31:50.020Z,7.41
2024-03-06T23:33:45.267Z,7.34
2024-03-06T23:35:41.044Z,7.38
2024-03-06T23:37:36.348Z,7.35
2024-03-06T23:39:31.882Z,7.35
2024-03-06T23:41:30.278Z,7.31
2024-03-06T23:43:25.789Z,7.27
2024-03-06T23:45:18.643Z,7.29
2024-03-06T23:47:15.444Z,7.30
2024-03-06T23:49:10.563Z,7.36
2024-03-06T23:51:06.447Z,7.28
2024-03-06T23:53:01.852Z,7.32
2024-03-06T23:54:57.805Z,7.37
2024-03-06T23:56:53.218Z,7.38
2024-03-06T23:58:48.975Z,7.35
